CNUK1: Grand River, Chanute

Data processed at Fri Dec 08 2017 23:37


All information presented herein is the property of the government of the United States of America and may be revised or deleted at any time without prior notice.
Dissemination of this information without the expressed written consent of the Public Affairs Office, Tulsa District U.S. Army Corps of Engineers is strictly prohibited.
These data are gathered electronically and, as presented, have not undergone any form of quality control. These data are not guaranteed to be valid or correct.
Go to home page.
Go to station list.

Upstream stations:

Downstream station:
Previous Day
Next Day
Current Day
    
SHEF ID:       CNUK1     NEOSHO R NR CHANUTE, KS
STATION TYPE:  

               PRECIP     STAGE  RIV-FLOW   VOLTAGE  BAT-LOAD
                   in        ft       cfs      volt      volt
              Ccp-Rev   Ccp-Rev   Ccp-Rev   Ccp-Rev   Ccp-Rev
(US/Central)
12/06 00:00      0.00      7.67       110     12.65     12.49
12/06 01:00      0.00      7.66       107     12.65     12.41
12/06 02:00      0.00      7.66       107     12.57     12.41
12/06 03:00      0.00      7.66       107     12.57     12.41
12/06 04:00      0.00      7.67       110     12.57     12.33
12/06 05:00      0.00      7.67       110     12.57     12.33
12/06 06:00      0.00      7.67       110     12.57     12.33
12/06 07:00      0.00      7.67       110     12.57     12.33
12/06 08:00      0.00      7.67       110     12.57     12.33
12/06 09:00      0.00      7.66       107     12.73     12.41
12/06 10:00      0.00      7.65       105     13.13     12.73
12/06 11:00      0.00      7.64       103     13.60     13.13
12/06 12:00      0.00      7.65       105     13.44     13.44
12/06 13:00      0.00      7.62        98     13.84     13.44
12/06 14:00      0.00      7.62        98     13.44     13.44
12/06 15:00      0.00      7.62        98     13.53     13.44
12/06 16:00      0.00      7.64       103     13.92     13.44
12/06 17:00      0.00      7.65       105     13.05     13.21
12/06 18:00      0.00      7.66       107     12.81     12.81
12/06 19:00      0.00      7.66       107     12.81     12.65
12/06 20:00      0.00      7.66       107     12.73     12.65
12/06 21:00      0.00      7.66       107     12.65     12.57
12/06 22:00      0.00      7.66       107     12.65     12.57
12/06 23:00      0.00      7.66       107     12.73     12.49